Pagina principale
METAR-TAF:

METAR-TAF

Aeroporti :

Ancona, Italia

latitudine: 43-37N, longitudine: 013-22E, altezza: 12 m

Osservazione

Il bollettino è stato emesso 40 minuti fa, alle 18:50 UTC
Vento 2 kt da direzioni variabili
Temperature 9°C
Umidità 71%
Pressione 1028 hPa
Visibilità 10 km o più
nessuna nube inferiore a 1500 m e nessun cumulonembo

METAR: LIPY 161850Z VRB02KT CAVOK 09/04 Q1028

Ora: 20:30 (19:30 UTC)

Previsione

Il bollettino è stato emesso 2 ore e 30 minuti fa, alle 17:00 UTC
Previsione valida dal 16 alle 18 UTC al 17 alle 18 UTC
Vento 5 kt da direzioni variabili
Visibilità 10 km o più
Nubi sparse ad un'altezza di 4000 ft
Temporaneamente
dal 17 alle 02 UTC al 17 alle 08 UTC
Visibilità: 3500 m
foschia

TAF: LIPY 161700Z 1618/1718 VRB05KT 9999 SCT040 TEMPO 1702/1708 3500 BR

Osservazioni e previsioni meteorologiche di più di 4000 aeroporti (messaggi METAR e TAF).

Le stazioni disponibili sono rappresentate dai dischi gialli e rossi sulla carta.

Puntare il mouse per vedere il nome della stazione.

Clicca sopra per visualizzare le osservazioni e previsioni meteorologiche.

Per cambiare la mappa : fare clic sui pulsanti verdi con una croce nera per ingrandire, il pulsante verde con un trattino per diminuire, o sulla freccia verde per le mappe adiacenti.


METAR-TAF: